sensor_id;sensor_type;location;lat;lon;timestamp;temperature;humidity
8611;DHT22;4343;53.648;10.098;2022-07-19T00:00:23;18.50;99.90
8611;DHT22;4343;53.648;10.098;2022-07-19T00:02:50;18.50;99.90
8611;DHT22;4343;53.648;10.098;2022-07-19T00:05:16;18.40;99.90
8611;DHT22;4343;53.648;10.098;2022-07-19T00:07:42;18.40;99.90
8611;DHT22;4343;53.648;10.098;2022-07-19T00:10:10;18.40;99.90
8611;DHT22;4343;53.648;10.098;2022-07-19T00:12:36;18.40;99.90
8611;DHT22;4343;53.648;10.098;2022-07-19T00:15:04;18.30;99.90
8611;DHT22;4343;53.648;10.098;2022-07-19T00:17:30;18.20;99.90
8611;DHT22;4343;53.648;10.098;2022-07-19T00:19:55;18.20;99.90
8611;DHT22;4343;53.648;10.098;2022-07-19T00:22:21;18.20;99.90
8611;DHT22;4343;53.648;10.098;2022-07-19T00:24:47;18.20;99.90
8611;DHT22;4343;53.648;10.098;2022-07-19T00:27:12;18.10;99.90
8611;DHT22;4343;53.648;10.098;2022-07-19T00:29:38;18.10;99.90
8611;DHT22;4343;53.648;10.098;2022-07-19T00:32:05;18.10;99.90
8611;DHT22;4343;53.648;10.098;2022-07-19T00:34:30;18.10;99.90
8611;DHT22;4343;53.648;10.098;2022-07-19T00:36:56;18.00;99.90
8611;DHT22;4343;53.648;10.098;2022-07-19T00:39:22;18.00;99.90
8611;DHT22;4343;53.648;10.098;2022-07-19T00:41:47;18.00;99.90
8611;DHT22;4343;53.648;10.098;2022-07-19T00:44:13;18.00;99.90
8611;DHT22;4343;53.648;10.098;2022-07-19T00:46:39;18.00;99.90
8611;DHT22;4343;53.648;10.098;2022-07-19T00:49:05;17.90;99.90
8611;DHT22;4343;53.648;10.098;2022-07-19T00:51:34;17.90;99.90
8611;DHT22;4343;53.648;10.098;2022-07-19T00:54:01;17.90;99.90
8611;DHT22;4343;53.648;10.098;2022-07-19T00:56:27;17.80;99.90
8611;DHT22;4343;53.648;10.098;2022-07-19T00:58:55;17.80;99.90
8611;DHT22;4343;53.648;10.098;2022-07-19T01:01:21;17.80;99.90
8611;DHT22;4343;53.648;10.098;2022-07-19T01:03:47;17.70;99.90
8611;DHT22;4343;53.648;10.098;2022-07-19T01:06:13;17.70;99.90
8611;DHT22;4343;53.648;10.098;2022-07-19T01:08:39;17.70;99.90
8611;DHT22;4343;53.648;10.098;2022-07-19T01:11:06;17.70;99.90
8611;DHT22;4343;53.648;10.098;2022-07-19T01:13:33;17.60;99.90
8611;DHT22;4343;53.648;10.098;2022-07-19T01:15:59;17.60;99.90
8611;DHT22;4343;53.648;10.098;2022-07-19T01:18:25;17.60;99.90
8611;DHT22;4343;53.648;10.098;2022-07-19T01:20:51;17.50;99.90
8611;DHT22;4343;53.648;10.098;2022-07-19T01:23:17;17.50;99.90
8611;DHT22;4343;53.648;10.098;2022-07-19T01:25:42;17.50;99.90
8611;DHT22;4343;53.648;10.098;2022-07-19T01:28:09;17.40;99.90
8611;DHT22;4343;53.648;10.098;2022-07-19T01:30:35;17.40;99.90
8611;DHT22;4343;53.648;10.098;2022-07-19T01:33:01;17.40;99.90
8611;DHT22;4343;53.648;10.098;2022-07-19T01:35:27;17.40;99.90
8611;DHT22;4343;53.648;10.098;2022-07-19T01:37:54;17.30;99.90
8611;DHT22;4343;53.648;10.098;2022-07-19T01:40:20;17.30;99.90
8611;DHT22;4343;53.648;10.098;2022-07-19T01:42:47;17.30;99.90
8611;DHT22;4343;53.648;10.098;2022-07-19T01:45:13;17.20;99.90
8611;DHT22;4343;53.648;10.098;2022-07-19T01:47:39;17.20;99.90
8611;DHT22;4343;53.648;10.098;2022-07-19T01:50:10;17.20;99.90
8611;DHT22;4343;53.648;10.098;2022-07-19T01:52:36;17.20;99.90
8611;DHT22;4343;53.648;10.098;2022-07-19T01:55:03;17.20;99.90
8611;DHT22;4343;53.648;10.098;2022-07-19T01:57:29;17.10;99.90
8611;DHT22;4343;53.648;10.098;2022-07-19T01:59:55;17.10;99.90
8611;DHT22;4343;53.648;10.098;2022-07-19T02:02:21;17.10;99.90
8611;DHT22;4343;53.648;10.098;2022-07-19T02:04:46;17.10;99.90
8611;DHT22;4343;53.648;10.098;2022-07-19T02:07:12;17.10;99.90
8611;DHT22;4343;53.648;10.098;2022-07-19T02:09:38;17.00;99.90
8611;DHT22;4343;53.648;10.098;2022-07-19T02:12:03;17.00;99.90
8611;DHT22;4343;53.648;10.098;2022-07-19T02:14:29;17.00;99.90
8611;DHT22;4343;53.648;10.098;2022-07-19T02:16:54;17.00;99.90
8611;DHT22;4343;53.648;10.098;2022-07-19T02:19:20;17.00;99.90
8611;DHT22;4343;53.648;10.098;2022-07-19T02:21:47;16.90;99.90
8611;DHT22;4343;53.648;10.098;2022-07-19T02:24:13;16.90;99.90
8611;DHT22;4343;53.648;10.098;2022-07-19T02:26:39;16.80;99.90
8611;DHT22;4343;53.648;10.098;2022-07-19T02:29:05;16.80;99.90
8611;DHT22;4343;53.648;10.098;2022-07-19T02:31:31;16.80;99.90
8611;DHT22;4343;53.648;10.098;2022-07-19T02:33:56;16.80;99.90
8611;DHT22;4343;53.648;10.098;2022-07-19T02:36:22;16.80;99.90
8611;DHT22;4343;53.648;10.098;2022-07-19T02:38:47;16.70;99.90
8611;DHT22;4343;53.648;10.098;2022-07-19T02:41:13;16.70;99.90
8611;DHT22;4343;53.648;10.098;2022-07-19T02:43:39;16.70;99.90
8611;DHT22;4343;53.648;10.098;2022-07-19T02:46:05;16.70;99.90
8611;DHT22;4343;53.648;10.098;2022-07-19T02:48:31;16.60;99.90
8611;DHT22;4343;53.648;10.098;2022-07-19T02:50:57;16.60;99.90
8611;DHT22;4343;53.648;10.098;2022-07-19T02:53:23;16.60;99.90
8611;DHT22;4343;53.648;10.098;2022-07-19T02:55:48;16.60;99.90
8611;DHT22;4343;53.648;10.098;2022-07-19T02:58:14;16.50;99.90
8611;DHT22;4343;53.648;10.098;2022-07-19T03:00:39;16.50;99.90
8611;DHT22;4343;53.648;10.098;2022-07-19T03:03:05;16.50;99.90
8611;DHT22;4343;53.648;10.098;2022-07-19T03:05:49;16.50;99.90
8611;DHT22;4343;53.648;10.098;2022-07-19T03:08:15;16.40;99.90
8611;DHT22;4343;53.648;10.098;2022-07-19T03:10:40;16.40;99.90
8611;DHT22;4343;53.648;10.098;2022-07-19T03:13:06;16.30;99.90
8611;DHT22;4343;53.648;10.098;2022-07-19T03:15:32;16.30;99.90
8611;DHT22;4343;53.648;10.098;2022-07-19T03:17:57;16.30;99.90
8611;DHT22;4343;53.648;10.098;2022-07-19T03:20:23;16.30;99.90
8611;DHT22;4343;53.648;10.098;2022-07-19T03:22:48;16.30;99.90
8611;DHT22;4343;53.648;10.098;2022-07-19T03:25:14;16.30;99.90
8611;DHT22;4343;53.648;10.098;2022-07-19T03:27:40;16.30;99.90
8611;DHT22;4343;53.648;10.098;2022-07-19T03:30:06;16.20;99.90
8611;DHT22;4343;53.648;10.098;2022-07-19T03:32:32;16.20;99.90
8611;DHT22;4343;53.648;10.098;2022-07-19T03:34:57;16.20;99.90
8611;DHT22;4343;53.648;10.098;2022-07-19T03:37:23;16.20;99.90
8611;DHT22;4343;53.648;10.098;2022-07-19T03:39:48;16.20;99.90
8611;DHT22;4343;53.648;10.098;2022-07-19T03:42:14;16.20;99.90
8611;DHT22;4343;53.648;10.098;2022-07-19T03:44:40;16.10;99.90
8611;DHT22;4343;53.648;10.098;2022-07-19T03:47:05;16.10;99.90
8611;DHT22;4343;53.648;10.098;2022-07-19T03:49:31;16.10;99.90
8611;DHT22;4343;53.648;10.098;2022-07-19T03:51:56;16.10;99.90
8611;DHT22;4343;53.648;10.098;2022-07-19T03:54:22;16.10;99.90
8611;DHT22;4343;53.648;10.098;2022-07-19T03:56:48;16.10;99.90
8611;DHT22;4343;53.648;10.098;2022-07-19T03:59:13;16.10;99.90
8611;DHT22;4343;53.648;10.098;2022-07-19T04:01:39;16.10;99.90
8611;DHT22;4343;53.648;10.098;2022-07-19T04:04:06;16.10;99.90
8611;DHT22;4343;53.648;10.098;2022-07-19T04:06:32;16.00;99.90
8611;DHT22;4343;53.648;10.098;2022-07-19T04:08:58;16.00;99.90
8611;DHT22;4343;53.648;10.098;2022-07-19T04:11:23;16.00;99.90
8611;DHT22;4343;53.648;10.098;2022-07-19T04:13:49;16.00;99.90
8611;DHT22;4343;53.648;10.098;2022-07-19T04:16:14;16.00;99.90
8611;DHT22;4343;53.648;10.098;2022-07-19T04:18:40;16.00;99.90
8611;DHT22;4343;53.648;10.098;2022-07-19T04:21:06;16.00;99.90
8611;DHT22;4343;53.648;10.098;2022-07-19T04:23:32;16.00;99.90
8611;DHT22;4343;53.648;10.098;2022-07-19T04:25:57;16.10;99.90
8611;DHT22;4343;53.648;10.098;2022-07-19T04:28:23;16.00;99.90
8611;DHT22;4343;53.648;10.098;2022-07-19T04:30:49;16.10;99.90
8611;DHT22;4343;53.648;10.098;2022-07-19T04:33:16;16.10;99.90
8611;DHT22;4343;53.648;10.098;2022-07-19T04:35:43;16.10;99.90
8611;DHT22;4343;53.648;10.098;2022-07-19T04:38:08;16.10;99.90
8611;DHT22;4343;53.648;10.098;2022-07-19T04:40:34;16.10;99.90
8611;DHT22;4343;53.648;10.098;2022-07-19T04:43:00;16.10;99.90
8611;DHT22;4343;53.648;10.098;2022-07-19T04:45:25;16.10;99.90
8611;DHT22;4343;53.648;10.098;2022-07-19T04:47:51;16.10;99.90
8611;DHT22;4343;53.648;10.098;2022-07-19T04:50:17;16.20;99.90
8611;DHT22;4343;53.648;10.098;2022-07-19T04:52:42;16.20;99.90
8611;DHT22;4343;53.648;10.098;2022-07-19T04:55:08;16.20;99.90
8611;DHT22;4343;53.648;10.098;2022-07-19T04:57:34;16.20;99.90
8611;DHT22;4343;53.648;10.098;2022-07-19T04:59:59;16.30;99.90
8611;DHT22;4343;53.648;10.098;2022-07-19T05:02:25;16.30;99.90
8611;DHT22;4343;53.648;10.098;2022-07-19T05:04:50;16.30;99.90
8611;DHT22;4343;53.648;10.098;2022-07-19T05:07:16;16.40;99.90
8611;DHT22;4343;53.648;10.098;2022-07-19T05:09:42;16.40;99.90
8611;DHT22;4343;53.648;10.098;2022-07-19T05:12:07;16.50;99.90
8611;DHT22;4343;53.648;10.098;2022-07-19T05:14:34;16.50;99.90
8611;DHT22;4343;53.648;10.098;2022-07-19T05:17:00;16.60;99.90
8611;DHT22;4343;53.648;10.098;2022-07-19T05:19:25;16.60;99.90
8611;DHT22;4343;53.648;10.098;2022-07-19T05:21:51;16.80;99.90
8611;DHT22;4343;53.648;10.098;2022-07-19T05:24:17;16.80;99.90
8611;DHT22;4343;53.648;10.098;2022-07-19T05:26:43;17.00;99.90
8611;DHT22;4343;53.648;10.098;2022-07-19T05:29:08;17.10;99.90
8611;DHT22;4343;53.648;10.098;2022-07-19T05:31:34;17.20;99.90
8611;DHT22;4343;53.648;10.098;2022-07-19T05:34:00;17.30;99.90
8611;DHT22;4343;53.648;10.098;2022-07-19T05:36:26;17.50;99.90
8611;DHT22;4343;53.648;10.098;2022-07-19T05:38:51;17.70;99.90
8611;DHT22;4343;53.648;10.098;2022-07-19T05:41:18;17.80;99.90
8611;DHT22;4343;53.648;10.098;2022-07-19T05:43:47;17.90;99.90
8611;DHT22;4343;53.648;10.098;2022-07-19T05:46:13;18.10;99.90
8611;DHT22;4343;53.648;10.098;2022-07-19T05:48:38;18.20;99.90
8611;DHT22;4343;53.648;10.098;2022-07-19T05:51:04;18.40;99.90
8611;DHT22;4343;53.648;10.098;2022-07-19T05:53:31;18.50;99.90
8611;DHT22;4343;53.648;10.098;2022-07-19T05:55:56;18.70;99.90
8611;DHT22;4343;53.648;10.098;2022-07-19T05:58:22;18.80;99.90
8611;DHT22;4343;53.648;10.098;2022-07-19T06:00:49;19.00;99.90
8611;DHT22;4343;53.648;10.098;2022-07-19T06:03:33;19.10;99.90
8611;DHT22;4343;53.648;10.098;2022-07-19T06:05:58;19.30;99.90
8611;DHT22;4343;53.648;10.098;2022-07-19T06:08:24;19.50;99.90
8611;DHT22;4343;53.648;10.098;2022-07-19T06:10:49;19.60;99.90
8611;DHT22;4343;53.648;10.098;2022-07-19T06:13:15;19.80;99.90
8611;DHT22;4343;53.648;10.098;2022-07-19T06:15:41;19.90;99.90
8611;DHT22;4343;53.648;10.098;2022-07-19T06:18:07;20.10;99.90
8611;DHT22;4343;53.648;10.098;2022-07-19T06:20:33;20.30;99.90
8611;DHT22;4343;53.648;10.098;2022-07-19T06:22:58;20.50;99.90
8611;DHT22;4343;53.648;10.098;2022-07-19T06:25:24;20.70;99.90
8611;DHT22;4343;53.648;10.098;2022-07-19T06:27:49;20.80;99.90
8611;DHT22;4343;53.648;10.098;2022-07-19T06:30:15;21.00;99.90
8611;DHT22;4343;53.648;10.098;2022-07-19T06:32:40;21.20;99.90
8611;DHT22;4343;53.648;10.098;2022-07-19T06:35:06;21.40;99.90
8611;DHT22;4343;53.648;10.098;2022-07-19T06:37:32;21.60;99.90
8611;DHT22;4343;53.648;10.098;2022-07-19T06:39:57;21.70;99.90
8611;DHT22;4343;53.648;10.098;2022-07-19T06:42:23;22.00;99.90
8611;DHT22;4343;53.648;10.098;2022-07-19T06:44:48;22.20;99.90
8611;DHT22;4343;53.648;10.098;2022-07-19T06:47:14;22.30;99.90
8611;DHT22;4343;53.648;10.098;2022-07-19T06:49:40;22.50;99.90
8611;DHT22;4343;53.648;10.098;2022-07-19T06:52:06;22.70;99.90
8611;DHT22;4343;53.648;10.098;2022-07-19T06:54:31;22.90;99.90
8611;DHT22;4343;53.648;10.098;2022-07-19T06:56:57;23.10;99.90
8611;DHT22;4343;53.648;10.098;2022-07-19T06:59:22;23.30;99.90
8611;DHT22;4343;53.648;10.098;2022-07-19T07:01:48;23.50;99.90
8611;DHT22;4343;53.648;10.098;2022-07-19T07:04:14;23.70;99.90
8611;DHT22;4343;53.648;10.098;2022-07-19T07:06:39;23.90;99.90
8611;DHT22;4343;53.648;10.098;2022-07-19T07:09:05;24.00;99.90
8611;DHT22;4343;53.648;10.098;2022-07-19T07:11:30;24.20;99.90
8611;DHT22;4343;53.648;10.098;2022-07-19T07:13:56;24.40;99.90
8611;DHT22;4343;53.648;10.098;2022-07-19T07:16:22;24.50;99.90
8611;DHT22;4343;53.648;10.098;2022-07-19T07:18:47;24.70;99.90
8611;DHT22;4343;53.648;10.098;2022-07-19T07:21:13;24.80;99.90
8611;DHT22;4343;53.648;10.098;2022-07-19T07:23:39;25.00;99.90
8611;DHT22;4343;53.648;10.098;2022-07-19T07:26:05;25.10;99.90
8611;DHT22;4343;53.648;10.098;2022-07-19T07:28:30;25.30;99.90
8611;DHT22;4343;53.648;10.098;2022-07-19T07:30:56;25.40;99.90
8611;DHT22;4343;53.648;10.098;2022-07-19T07:33:22;25.50;99.90
8611;DHT22;4343;53.648;10.098;2022-07-19T07:35:48;25.50;99.90
8611;DHT22;4343;53.648;10.098;2022-07-19T07:38:14;25.60;99.90
8611;DHT22;4343;53.648;10.098;2022-07-19T07:40:39;25.60;99.90
8611;DHT22;4343;53.648;10.098;2022-07-19T07:43:05;25.70;99.90
8611;DHT22;4343;53.648;10.098;2022-07-19T07:45:32;25.70;99.90
8611;DHT22;4343;53.648;10.098;2022-07-19T07:47:58;25.80;99.90
8611;DHT22;4343;53.648;10.098;2022-07-19T07:50:24;25.80;99.90
8611;DHT22;4343;53.648;10.098;2022-07-19T07:52:50;25.80;99.90
8611;DHT22;4343;53.648;10.098;2022-07-19T07:55:15;25.90;99.70
8611;DHT22;4343;53.648;10.098;2022-07-19T07:57:41;25.90;99.20
8611;DHT22;4343;53.648;10.098;2022-07-19T08:00:07;26.00;99.00
8611;DHT22;4343;53.648;10.098;2022-07-19T08:02:39;26.00;98.90
8611;DHT22;4343;53.648;10.098;2022-07-19T08:05:05;26.10;98.90
8611;DHT22;4343;53.648;10.098;2022-07-19T08:07:31;26.20;98.60
8611;DHT22;4343;53.648;10.098;2022-07-19T08:09:57;26.30;98.20
8611;DHT22;4343;53.648;10.098;2022-07-19T08:12:24;26.40;98.50
8611;DHT22;4343;53.648;10.098;2022-07-19T08:14:50;26.50;98.40
8611;DHT22;4343;53.648;10.098;2022-07-19T08:17:16;26.70;98.40
8611;DHT22;4343;53.648;10.098;2022-07-19T08:19:41;26.80;97.90
8611;DHT22;4343;53.648;10.098;2022-07-19T08:22:07;26.90;97.80
8611;DHT22;4343;53.648;10.098;2022-07-19T08:24:32;27.10;97.70
8611;DHT22;4343;53.648;10.098;2022-07-19T08:26:58;27.20;97.20
8611;DHT22;4343;53.648;10.098;2022-07-19T08:29:23;27.40;97.20
8611;DHT22;4343;53.648;10.098;2022-07-19T08:31:49;27.60;97.10
8611;DHT22;4343;53.648;10.098;2022-07-19T08:34:15;27.70;96.40
8611;DHT22;4343;53.648;10.098;2022-07-19T08:36:40;27.80;95.00
8611;DHT22;4343;53.648;10.098;2022-07-19T08:39:06;27.90;95.10
8611;DHT22;4343;53.648;10.098;2022-07-19T08:41:31;28.00;94.70
8611;DHT22;4343;53.648;10.098;2022-07-19T08:44:00;28.10;94.70
8611;DHT22;4343;53.648;10.098;2022-07-19T08:46:26;28.30;94.30
8611;DHT22;4343;53.648;10.098;2022-07-19T08:48:53;28.40;94.90
8611;DHT22;4343;53.648;10.098;2022-07-19T08:51:20;28.50;94.10
8611;DHT22;4343;53.648;10.098;2022-07-19T08:53:46;28.70;93.90
8611;DHT22;4343;53.648;10.098;2022-07-19T08:56:12;28.80;93.90
8611;DHT22;4343;53.648;10.098;2022-07-19T08:58:56;28.90;94.10
8611;DHT22;4343;53.648;10.098;2022-07-19T09:01:22;29.00;94.10
8611;DHT22;4343;53.648;10.098;2022-07-19T09:04:04;29.20;93.90
8611;DHT22;4343;53.648;10.098;2022-07-19T09:06:38;29.20;93.20
8611;DHT22;4343;53.648;10.098;2022-07-19T09:09:04;29.40;92.80
8611;DHT22;4343;53.648;10.098;2022-07-19T09:11:34;29.50;92.40
8611;DHT22;4343;53.648;10.098;2022-07-19T09:14:08;29.60;92.30
8611;DHT22;4343;53.648;10.098;2022-07-19T09:19:29;29.70;91.70
8611;DHT22;4343;53.648;10.098;2022-07-19T09:24:22;29.80;90.60
8611;DHT22;4343;53.648;10.098;2022-07-19T09:27:08;29.80;91.00
8611;DHT22;4343;53.648;10.098;2022-07-19T09:29:37;29.90;90.90
8611;DHT22;4343;53.648;10.098;2022-07-19T09:32:07;30.00;91.80
8611;DHT22;4343;53.648;10.098;2022-07-19T09:34:42;30.10;91.00
8611;DHT22;4343;53.648;10.098;2022-07-19T09:37:08;30.20;90.30
8611;DHT22;4343;53.648;10.098;2022-07-19T09:39:34;30.30;90.20
8611;DHT22;4343;53.648;10.098;2022-07-19T09:42:00;30.40;90.10
8611;DHT22;4343;53.648;10.098;2022-07-19T09:44:28;30.40;90.20
8611;DHT22;4343;53.648;10.098;2022-07-19T09:46:54;30.50;89.60
8611;DHT22;4343;53.648;10.098;2022-07-19T09:49:20;30.60;89.40
8611;DHT22;4343;53.648;10.098;2022-07-19T09:51:51;30.70;89.10
8611;DHT22;4343;53.648;10.098;2022-07-19T09:54:25;30.80;89.50
8611;DHT22;4343;53.648;10.098;2022-07-19T09:56:52;30.90;90.10
8611;DHT22;4343;53.648;10.098;2022-07-19T09:59:19;31.10;90.30
8611;DHT22;4343;53.648;10.098;2022-07-19T10:01:47;31.20;90.10
8611;DHT22;4343;53.648;10.098;2022-07-19T10:04:16;31.40;87.70
8611;DHT22;4343;53.648;10.098;2022-07-19T10:06:43;31.40;82.90
8611;DHT22;4343;53.648;10.098;2022-07-19T10:09:10;31.40;80.10
8611;DHT22;4343;53.648;10.098;2022-07-19T10:11:37;31.40;81.10
8611;DHT22;4343;53.648;10.098;2022-07-19T10:14:03;31.40;82.60
8611;DHT22;4343;53.648;10.098;2022-07-19T10:19:34;31.50;81.70
8611;DHT22;4343;53.648;10.098;2022-07-19T10:22:01;31.50;80.90
8611;DHT22;4343;53.648;10.098;2022-07-19T10:24:48;31.70;81.10
8611;DHT22;4343;53.648;10.098;2022-07-19T10:27:16;31.80;80.50
8611;DHT22;4343;53.648;10.098;2022-07-19T10:29:42;31.90;80.90
8611;DHT22;4343;53.648;10.098;2022-07-19T10:32:12;32.00;78.10
8611;DHT22;4343;53.648;10.098;2022-07-19T10:34:38;32.10;77.20
8611;DHT22;4343;53.648;10.098;2022-07-19T10:37:05;32.20;79.30
8611;DHT22;4343;53.648;10.098;2022-07-19T10:44:33;32.50;78.30
8611;DHT22;4343;53.648;10.098;2022-07-19T10:46:59;32.60;78.30
8611;DHT22;4343;53.648;10.098;2022-07-19T10:49:45;32.70;76.80
8611;DHT22;4343;53.648;10.098;2022-07-19T10:52:33;32.80;75.70
8611;DHT22;4343;53.648;10.098;2022-07-19T10:57:47;32.90;76.10
8611;DHT22;4343;53.648;10.098;2022-07-19T11:00:23;33.00;77.60
8611;DHT22;4343;53.648;10.098;2022-07-19T11:02:50;33.10;76.80
8611;DHT22;4343;53.648;10.098;2022-07-19T11:05:20;33.10;75.10
8611;DHT22;4343;53.648;10.098;2022-07-19T11:07:54;33.20;73.80
8611;DHT22;4343;53.648;10.098;2022-07-19T11:10:27;33.20;73.40
8611;DHT22;4343;53.648;10.098;2022-07-19T11:12:55;33.20;73.80
8611;DHT22;4343;53.648;10.098;2022-07-19T11:15:21;33.30;73.50
8611;DHT22;4343;53.648;10.098;2022-07-19T11:20:24;33.40;75.40
8611;DHT22;4343;53.648;10.098;2022-07-19T11:22:51;33.50;73.40
8611;DHT22;4343;53.648;10.098;2022-07-19T11:25:24;33.60;73.60
8611;DHT22;4343;53.648;10.098;2022-07-19T11:27:50;33.70;74.30
8611;DHT22;4343;53.648;10.098;2022-07-19T11:30:16;33.80;76.20
8611;DHT22;4343;53.648;10.098;2022-07-19T11:32:42;33.90;72.70
8611;DHT22;4343;53.648;10.098;2022-07-19T11:35:10;34.00;73.10
8611;DHT22;4343;53.648;10.098;2022-07-19T11:37:39;34.20;73.40
8611;DHT22;4343;53.648;10.098;2022-07-19T11:40:08;34.30;74.40
8611;DHT22;4343;53.648;10.098;2022-07-19T11:42:46;34.40;74.10
8611;DHT22;4343;53.648;10.098;2022-07-19T11:45:16;34.40;72.50
8611;DHT22;4343;53.648;10.098;2022-07-19T11:47:49;34.50;73.60
8611;DHT22;4343;53.648;10.098;2022-07-19T11:50:17;34.70;74.40
8611;DHT22;4343;53.648;10.098;2022-07-19T11:52:47;34.70;73.40
8611;DHT22;4343;53.648;10.098;2022-07-19T11:55:14;34.80;72.40
8611;DHT22;4343;53.648;10.098;2022-07-19T11:57:40;34.90;74.30
8611;DHT22;4343;53.648;10.098;2022-07-19T12:00:07;35.00;72.10
8611;DHT22;4343;53.648;10.098;2022-07-19T12:03:08;35.10;72.00
8611;DHT22;4343;53.648;10.098;2022-07-19T12:05:39;35.20;72.80
8611;DHT22;4343;53.648;10.098;2022-07-19T12:08:08;35.30;67.40
8611;DHT22;4343;53.648;10.098;2022-07-19T12:10:42;35.30;67.20
8611;DHT22;4343;53.648;10.098;2022-07-19T12:13:14;35.30;66.50
8611;DHT22;4343;53.648;10.098;2022-07-19T12:15:43;35.40;66.50
8611;DHT22;4343;53.648;10.098;2022-07-19T12:18:09;35.50;67.80
8611;DHT22;4343;53.648;10.098;2022-07-19T12:20:35;35.50;67.40
8611;DHT22;4343;53.648;10.098;2022-07-19T12:23:17;35.70;67.50
8611;DHT22;4343;53.648;10.098;2022-07-19T12:25:44;35.70;68.80
8611;DHT22;4343;53.648;10.098;2022-07-19T12:28:10;35.90;69.10
8611;DHT22;4343;53.648;10.098;2022-07-19T12:30:36;35.90;69.00
8611;DHT22;4343;53.648;10.098;2022-07-19T12:33:11;36.00;65.90
8611;DHT22;4343;53.648;10.098;2022-07-19T12:35:42;36.10;64.10
8611;DHT22;4343;53.648;10.098;2022-07-19T12:38:08;36.20;64.70
8611;DHT22;4343;53.648;10.098;2022-07-19T12:40:36;36.20;64.00
8611;DHT22;4343;53.648;10.098;2022-07-19T12:43:02;36.30;66.60
8611;DHT22;4343;53.648;10.098;2022-07-19T12:45:40;36.40;65.30
8611;DHT22;4343;53.648;10.098;2022-07-19T12:48:10;36.50;63.70
8611;DHT22;4343;53.648;10.098;2022-07-19T12:50:42;36.60;63.10
8611;DHT22;4343;53.648;10.098;2022-07-19T12:53:11;36.60;62.20
8611;DHT22;4343;53.648;10.098;2022-07-19T12:55:37;36.70;63.70
8611;DHT22;4343;53.648;10.098;2022-07-19T12:58:05;36.70;63.80
8611;DHT22;4343;53.648;10.098;2022-07-19T13:00:32;36.90;64.60
8611;DHT22;4343;53.648;10.098;2022-07-19T13:02:59;36.90;64.60
8611;DHT22;4343;53.648;10.098;2022-07-19T13:05:26;37.00;64.70
8611;DHT22;4343;53.648;10.098;2022-07-19T13:07:52;37.10;62.80
8611;DHT22;4343;53.648;10.098;2022-07-19T13:10:18;37.20;63.00
8611;DHT22;4343;53.648;10.098;2022-07-19T13:12:44;37.30;63.90
8611;DHT22;4343;53.648;10.098;2022-07-19T13:15:11;37.40;62.60
8611;DHT22;4343;53.648;10.098;2022-07-19T13:17:37;37.40;62.30
8611;DHT22;4343;53.648;10.098;2022-07-19T13:20:04;37.50;61.10
8611;DHT22;4343;53.648;10.098;2022-07-19T13:22:32;37.60;59.60
8611;DHT22;4343;53.648;10.098;2022-07-19T13:24:58;37.60;60.50
8611;DHT22;4343;53.648;10.098;2022-07-19T13:27:23;37.60;61.70
8611;DHT22;4343;53.648;10.098;2022-07-19T13:29:49;37.70;59.80
8611;DHT22;4343;53.648;10.098;2022-07-19T13:32:14;37.70;60.10
8611;DHT22;4343;53.648;10.098;2022-07-19T13:34:40;37.80;59.80
8611;DHT22;4343;53.648;10.098;2022-07-19T13:37:06;37.80;59.00
8611;DHT22;4343;53.648;10.098;2022-07-19T13:39:32;37.80;57.90
8611;DHT22;4343;53.648;10.098;2022-07-19T13:41:58;37.80;57.00
8611;DHT22;4343;53.648;10.098;2022-07-19T13:44:23;37.80;58.50
8611;DHT22;4343;53.648;10.098;2022-07-19T13:46:49;37.80;58.00
8611;DHT22;4343;53.648;10.098;2022-07-19T13:49:15;37.80;59.10
8611;DHT22;4343;53.648;10.098;2022-07-19T13:51:40;37.90;59.00
8611;DHT22;4343;53.648;10.098;2022-07-19T13:54:06;38.00;58.10
8611;DHT22;4343;53.648;10.098;2022-07-19T13:56:32;38.00;56.20
8611;DHT22;4343;53.648;10.098;2022-07-19T13:58:58;38.00;57.00
8611;DHT22;4343;53.648;10.098;2022-07-19T14:01:25;38.10;56.90
8611;DHT22;4343;53.648;10.098;2022-07-19T14:03:51;38.10;56.50
8611;DHT22;4343;53.648;10.098;2022-07-19T14:06:17;38.10;56.80
8611;DHT22;4343;53.648;10.098;2022-07-19T14:08:42;38.10;56.50
8611;DHT22;4343;53.648;10.098;2022-07-19T14:11:08;38.10;57.00
8611;DHT22;4343;53.648;10.098;2022-07-19T14:13:33;38.20;55.70
8611;DHT22;4343;53.648;10.098;2022-07-19T14:16:00;38.20;55.80
8611;DHT22;4343;53.648;10.098;2022-07-19T14:18:27;38.20;55.80
8611;DHT22;4343;53.648;10.098;2022-07-19T14:20:53;38.10;56.60
8611;DHT22;4343;53.648;10.098;2022-07-19T14:23:19;38.10;55.80
8611;DHT22;4343;53.648;10.098;2022-07-19T14:25:45;38.10;56.10
8611;DHT22;4343;53.648;10.098;2022-07-19T14:28:10;38.10;56.10
8611;DHT22;4343;53.648;10.098;2022-07-19T14:30:36;38.00;55.70
8611;DHT22;4343;53.648;10.098;2022-07-19T14:33:02;37.80;55.60
8611;DHT22;4343;53.648;10.098;2022-07-19T14:35:28;37.70;55.80
8611;DHT22;4343;53.648;10.098;2022-07-19T14:37:53;37.60;55.20
8611;DHT22;4343;53.648;10.098;2022-07-19T14:40:20;37.40;54.70
8611;DHT22;4343;53.648;10.098;2022-07-19T14:42:45;37.20;54.30
8611;DHT22;4343;53.648;10.098;2022-07-19T14:45:11;37.00;54.00
8611;DHT22;4343;53.648;10.098;2022-07-19T14:47:38;36.70;53.50
8611;DHT22;4343;53.648;10.098;2022-07-19T14:50:05;36.40;53.10
8611;DHT22;4343;53.648;10.098;2022-07-19T14:52:32;36.20;53.40
8611;DHT22;4343;53.648;10.098;2022-07-19T14:54:57;35.90;53.90
8611;DHT22;4343;53.648;10.098;2022-07-19T14:57:23;35.60;53.60
8611;DHT22;4343;53.648;10.098;2022-07-19T14:59:49;35.40;53.70
8611;DHT22;4343;53.648;10.098;2022-07-19T15:02:15;35.20;54.00
8611;DHT22;4343;53.648;10.098;2022-07-19T15:04:41;35.00;54.10
8611;DHT22;4343;53.648;10.098;2022-07-19T15:07:07;34.80;54.50
8611;DHT22;4343;53.648;10.098;2022-07-19T15:09:33;34.70;54.90
8611;DHT22;4343;53.648;10.098;2022-07-19T15:11:58;34.60;55.90
8611;DHT22;4343;53.648;10.098;2022-07-19T15:14:28;34.40;55.50
8611;DHT22;4343;53.648;10.098;2022-07-19T15:16:55;34.30;55.90
8611;DHT22;4343;53.648;10.098;2022-07-19T15:19:21;34.20;56.20
8611;DHT22;4343;53.648;10.098;2022-07-19T15:21:46;34.00;56.00
8611;DHT22;4343;53.648;10.098;2022-07-19T15:24:12;33.90;56.10
8611;DHT22;4343;53.648;10.098;2022-07-19T15:26:38;33.90;56.50
8611;DHT22;4343;53.648;10.098;2022-07-19T15:29:03;33.80;57.10
8611;DHT22;4343;53.648;10.098;2022-07-19T15:31:29;33.70;57.00
8611;DHT22;4343;53.648;10.098;2022-07-19T15:33:54;33.60;57.40
8611;DHT22;4343;53.648;10.098;2022-07-19T15:36:20;33.50;57.40
8611;DHT22;4343;53.648;10.098;2022-07-19T15:38:46;33.40;57.80
8611;DHT22;4343;53.648;10.098;2022-07-19T15:41:11;33.30;58.20
8611;DHT22;4343;53.648;10.098;2022-07-19T15:43:37;33.20;58.00
8611;DHT22;4343;53.648;10.098;2022-07-19T15:46:03;33.20;58.00
8611;DHT22;4343;53.648;10.098;2022-07-19T15:48:28;33.10;58.40
8611;DHT22;4343;53.648;10.098;2022-07-19T15:50:54;33.10;59.00
8611;DHT22;4343;53.648;10.098;2022-07-19T15:53:19;33.00;58.30
8611;DHT22;4343;53.648;10.098;2022-07-19T15:55:45;32.90;58.20
8611;DHT22;4343;53.648;10.098;2022-07-19T15:58:10;32.90;58.40
8611;DHT22;4343;53.648;10.098;2022-07-19T16:00:36;32.90;58.50